EST,Max TemperatureF,Mean TemperatureF,Min TemperatureF,Max Dew PointF,MeanDew PointF,Min DewpointF,Max Humidity, Mean Humidity, Min Humidity, Max Sea Level PressureIn, Mean Sea Level PressureIn, Min Sea Level PressureIn, Max VisibilityMiles, Mean VisibilityMiles, Min VisibilityMiles, Max Wind SpeedMPH, Mean Wind SpeedMPH, Max Gust SpeedMPH,PrecipitationIn, CloudCover, Events, WindDirDegrees
2013-12-1,55,50,44,48,45,40,100,90,77,30.33,30.14,30.02,10,6,0,7,4,,0.01,7,Fog-Rain,10
2013-12-2,50,46,39,48,45,37,100,93,82,30.02,29.94,29.86,10,6,0,7,3,,0.00,6,Fog,6
2013-12-3,60,47,34,48,40,33,97,76,42,30.05,29.98,29.89,10,8,3,9,2,20,0.00,3,Rain,139
2013-12-4,66,59,52,62,58,49,100,94,84,30.13,30.07,30.02,10,6,0,7,1,,0.12,8,Fog-Rain,17
2013-12-5,75,64,53,66,58,52,100,92,66,30.19,30.14,30.10,10,4,0,9,2,,0.00,4,Fog,186
2013-12-6,79,74,68,68,66,65,93,84,62,30.17,30.11,30.07,10,10,10,17,10,26,0.00,4,,212
2013-12-7,70,56,43,67,51,38,93,90,82,30.43,30.26,30.07,10,8,2,20,12,25,0.48,7,Rain,356
2013-12-8,44,42,39,41,39,38,96,91,79,30.41,30.35,30.27,10,7,2,13,11,,0.11,8,Rain,6
2013-12-9,71,56,41,64,52,40,100,96,75,30.27,30.15,30.09,10,4,0,8,4,,0.01,7,Fog-Rain,318
2013-12-10,73,56,39,64,56,32,100,90,71,30.35,30.01,29.85,10,6,0,26,7,39,0.19,6,Rain,266
2013-12-11,50,40,30,32,26,15,92,65,28,30.48,30.38,30.31,10,10,10,9,5,,0.00,0,,342
2013-12-12,46,37,28,31,26,22,96,66,37,30.40,30.34,30.27,10,10,10,16,5,28,0.00,0,,340
2013-12-13,51,38,26,32,24,16,92,66,28,30.45,30.37,30.32,10,10,10,9,2,,0.00,0,,203
2013-12-14,66,51,36,64,51,32,97,83,57,30.33,30.01,29.77,10,8,2,22,7,30,0.66,7,Rain,164
2013-12-15,63,52,42,63,52,32,100,86,64,30.09,29.83,29.71,10,9,4,16,7,24,0.09,6,Rain,270
2013-12-16,55,44,34,40,33,29,89,68,42,30.21,30.16,30.09,10,10,10,10,6,,0.00,0,,268
2013-12-17,63,52,41,42,38,35,82,62,39,30.18,30.09,29.99,10,10,10,14,7,21,0.00,0,,213
2013-12-18,52,41,30,37,28,18,92,61,28,30.34,30.22,30.02,10,10,10,17,8,23,0.00,0,,316
2013-12-19,62,45,28,39,30,21,92,64,22,30.38,30.33,30.29,10,10,10,9,2,,0.00,0,,193
2013-12-20,71,55,39,59,50,38,97,84,63,30.29,30.24,30.17,10,10,10,9,2,,0.00,3,,179
2013-12-21,75,62,50,66,59,50,100,90,69,30.21,30.17,30.13,10,7,0,16,4,23,0.00,4,Fog,186
2013-12-22,80,74,68,68,67,65,93,85,64,30.16,30.14,30.10,10,10,10,16,10,26,0.00,4,,191
2013-12-23,75,67,57,69,65,56,93,88,76,30.14,30.09,30.03,10,9,2,21,13,28,0.13,7,Rain,212
2013-12-24,57,47,36,55,40,23,97,81,48,30.43,30.19,30.07,10,9,4,17,12,24,0.15,5,Rain,352
2013-12-25,44,36,28,31,23,18,73,58,45,30.54,30.46,30.38,10,10,10,13,10,,0.00,2,,17
2013-12-26,43,40,37,40,36,31,97,86,73,30.37,30.31,30.26,10,8,2,10,7,,0.08,7,Rain,343
2013-12-27,53,43,32,33,31,27,92,69,37,30.44,30.40,30.35,10,10,10,12,6,,0.00,0,,11
2013-12-28,62,45,28,43,34,26,92,66,36,30.43,30.33,30.17,10,10,10,7,3,,0.00,1,,38
2013-12-29,70,61,51,65,59,41,93,85,66,30.12,29.87,29.73,10,8,2,26,11,38,0.31,6,Rain,205
2013-12-30,57,50,42,48,44,42,100,89,57,30.14,30.02,29.95,10,5,0,7,4,,0.00,1,Fog,276
2013-12-31,53,44,36,43,37,28,100,76,38,30.38,30.25,30.11,10,10,6,13,5,20,0.00,2,,318